sensor_id;sensor_type;location;lat;lon;timestamp;P1;durP1;ratioP1;P2;durP2;ratioP2
9948;SDS011;5013;51.840;8.276;2023-02-28T00:00:10;7.63;;;3.43;;
9948;SDS011;5013;51.840;8.276;2023-02-28T00:02:38;3.63;;;3.33;;
9948;SDS011;5013;51.840;8.276;2023-02-28T00:05:06;3.73;;;3.43;;
9948;SDS011;5013;51.840;8.276;2023-02-28T00:07:32;5.37;;;3.53;;
9948;SDS011;5013;51.840;8.276;2023-02-28T00:09:58;4.93;;;3.10;;
9948;SDS011;5013;51.840;8.276;2023-02-28T00:12:24;3.93;;;3.30;;
9948;SDS011;5013;51.840;8.276;2023-02-28T00:14:50;3.30;;;3.10;;
9948;SDS011;5013;51.840;8.276;2023-02-28T00:17:16;5.87;;;3.47;;
9948;SDS011;5013;51.840;8.276;2023-02-28T00:19:49;4.03;;;3.20;;
9948;SDS011;5013;51.840;8.276;2023-02-28T00:22:16;4.77;;;2.90;;
9948;SDS011;5013;51.840;8.276;2023-02-28T00:24:42;4.27;;;3.00;;
9948;SDS011;5013;51.840;8.276;2023-02-28T00:27:07;4.37;;;3.33;;
9948;SDS011;5013;51.840;8.276;2023-02-28T00:29:33;5.60;;;3.50;;
9948;SDS011;5013;51.840;8.276;2023-02-28T00:31:59;3.23;;;3.00;;
9948;SDS011;5013;51.840;8.276;2023-02-28T00:34:25;5.87;;;3.50;;
9948;SDS011;5013;51.840;8.276;2023-02-28T00:36:51;3.30;;;3.10;;
9948;SDS011;5013;51.840;8.276;2023-02-28T00:39:16;3.53;;;3.23;;
9948;SDS011;5013;51.840;8.276;2023-02-28T00:41:42;3.50;;;3.20;;
9948;SDS011;5013;51.840;8.276;2023-02-28T00:44:08;4.60;;;3.37;;
9948;SDS011;5013;51.840;8.276;2023-02-28T00:46:34;3.17;;;2.77;;
9948;SDS011;5013;51.840;8.276;2023-02-28T00:49:00;4.50;;;3.37;;
9948;SDS011;5013;51.840;8.276;2023-02-28T00:51:25;6.60;;;3.53;;
9948;SDS011;5013;51.840;8.276;2023-02-28T00:53:51;4.93;;;3.97;;
9948;SDS011;5013;51.840;8.276;2023-02-28T00:56:17;11.47;;;4.23;;
9948;SDS011;5013;51.840;8.276;2023-02-28T00:58:42;13.80;;;6.43;;
9948;SDS011;5013;51.840;8.276;2023-02-28T01:01:08;16.37;;;7.50;;
9948;SDS011;5013;51.840;8.276;2023-02-28T01:03:33;11.63;;;5.20;;
9948;SDS011;5013;51.840;8.276;2023-02-28T01:05:59;10.60;;;4.80;;
9948;SDS011;5013;51.840;8.276;2023-02-28T01:08:25;10.97;;;6.33;;
9948;SDS011;5013;51.840;8.276;2023-02-28T01:10:51;17.20;;;7.23;;
9948;SDS011;5013;51.840;8.276;2023-02-28T01:13:17;14.87;;;6.80;;
9948;SDS011;5013;51.840;8.276;2023-02-28T01:15:45;17.17;;;6.70;;
9948;SDS011;5013;51.840;8.276;2023-02-28T01:18:14;10.77;;;6.17;;
9948;SDS011;5013;51.840;8.276;2023-02-28T01:20:40;15.03;;;7.10;;
9948;SDS011;5013;51.840;8.276;2023-02-28T01:23:05;12.70;;;7.10;;
9948;SDS011;5013;51.840;8.276;2023-02-28T01:25:33;17.87;;;7.13;;
9948;SDS011;5013;51.840;8.276;2023-02-28T01:28:02;16.30;;;6.53;;
9948;SDS011;5013;51.840;8.276;2023-02-28T01:30:28;14.17;;;6.17;;
9948;SDS011;5013;51.840;8.276;2023-02-28T01:32:54;11.67;;;5.20;;
9948;SDS011;5013;51.840;8.276;2023-02-28T01:35:19;8.10;;;5.40;;
9948;SDS011;5013;51.840;8.276;2023-02-28T01:37:45;7.83;;;4.93;;
9948;SDS011;5013;51.840;8.276;2023-02-28T01:40:11;8.37;;;5.20;;
9948;SDS011;5013;51.840;8.276;2023-02-28T01:42:37;7.10;;;5.27;;
9948;SDS011;5013;51.840;8.276;2023-02-28T01:47:50;8.07;;;4.57;;
9948;SDS011;5013;51.840;8.276;2023-02-28T01:50:21;7.57;;;4.67;;
9948;SDS011;5013;51.840;8.276;2023-02-28T01:52:50;6.83;;;4.40;;
9948;SDS011;5013;51.840;8.276;2023-02-28T01:55:18;8.80;;;5.30;;
9948;SDS011;5013;51.840;8.276;2023-02-28T01:57:48;7.50;;;4.80;;
9948;SDS011;5013;51.840;8.276;2023-02-28T02:00:17;7.57;;;4.83;;
9948;SDS011;5013;51.840;8.276;2023-02-28T02:02:47;6.10;;;4.43;;
9948;SDS011;5013;51.840;8.276;2023-02-28T02:05:26;8.13;;;4.70;;
9948;SDS011;5013;51.840;8.276;2023-02-28T02:07:56;5.93;;;4.53;;
9948;SDS011;5013;51.840;8.276;2023-02-28T02:10:35;7.27;;;4.03;;
9948;SDS011;5013;51.840;8.276;2023-02-28T02:36:00;5.13;;;4.00;;
9948;SDS011;5013;51.840;8.276;2023-02-28T02:38:53;5.47;;;4.40;;
9948;SDS011;5013;51.840;8.276;2023-02-28T02:41:45;7.03;;;4.43;;
9948;SDS011;5013;51.840;8.276;2023-02-28T02:44:28;5.70;;;4.47;;
9948;SDS011;5013;51.840;8.276;2023-02-28T02:47:09;4.77;;;4.30;;
9948;SDS011;5013;51.840;8.276;2023-02-28T02:49:38;8.67;;;4.20;;
9948;SDS011;5013;51.840;8.276;2023-02-28T02:52:08;6.97;;;4.90;;
9948;SDS011;5013;51.840;8.276;2023-02-28T02:54:37;5.83;;;4.73;;
9948;SDS011;5013;51.840;8.276;2023-02-28T02:57:10;6.37;;;3.90;;
9948;SDS011;5013;51.840;8.276;2023-02-28T02:59:53;5.90;;;4.20;;
9948;SDS011;5013;51.840;8.276;2023-02-28T03:02:21;4.87;;;4.37;;
9948;SDS011;5013;51.840;8.276;2023-02-28T03:04:56;4.40;;;4.00;;
9948;SDS011;5013;51.840;8.276;2023-02-28T03:07:25;8.03;;;4.60;;
9948;SDS011;5013;51.840;8.276;2023-02-28T03:09:52;4.60;;;4.20;;
9948;SDS011;5013;51.840;8.276;2023-02-28T03:12:19;5.23;;;4.40;;
9948;SDS011;5013;51.840;8.276;2023-02-28T03:28:22;36.03;;;20.60;;
9948;SDS011;5013;51.840;8.276;2023-02-28T03:31:10;13.07;;;8.50;;
9948;SDS011;5013;51.840;8.276;2023-02-28T03:34:11;11.77;;;7.83;;
9948;SDS011;5013;51.840;8.276;2023-02-28T03:36:45;15.00;;;8.40;;
9948;SDS011;5013;51.840;8.276;2023-02-28T03:39:22;15.37;;;9.23;;
9948;SDS011;5013;51.840;8.276;2023-02-28T03:41:59;18.80;;;10.80;;
9948;SDS011;5013;51.840;8.276;2023-02-28T03:44:40;14.63;;;8.13;;
9948;SDS011;5013;51.840;8.276;2023-02-28T03:47:23;11.40;;;7.30;;
9948;SDS011;5013;51.840;8.276;2023-02-28T03:49:55;9.40;;;6.03;;
9948;SDS011;5013;51.840;8.276;2023-02-28T03:52:33;9.40;;;5.57;;
9948;SDS011;5013;51.840;8.276;2023-02-28T03:55:04;4.63;;;4.23;;
9948;SDS011;5013;51.840;8.276;2023-02-28T04:00:20;9.67;;;5.50;;
9948;SDS011;5013;51.840;8.276;2023-02-28T04:02:53;11.10;;;7.63;;
9948;SDS011;5013;51.840;8.276;2023-02-28T04:05:20;9.63;;;6.70;;
9948;SDS011;5013;51.840;8.276;2023-02-28T04:07:46;8.13;;;6.57;;
9948;SDS011;5013;51.840;8.276;2023-02-28T04:10:11;14.17;;;8.60;;
9948;SDS011;5013;51.840;8.276;2023-02-28T04:12:38;9.90;;;6.73;;
9948;SDS011;5013;51.840;8.276;2023-02-28T04:15:04;8.63;;;6.30;;
9948;SDS011;5013;51.840;8.276;2023-02-28T04:17:30;8.90;;;6.83;;
9948;SDS011;5013;51.840;8.276;2023-02-28T04:19:55;7.80;;;5.43;;
9948;SDS011;5013;51.840;8.276;2023-02-28T04:22:22;10.50;;;7.33;;
9948;SDS011;5013;51.840;8.276;2023-02-28T04:24:50;11.57;;;7.20;;
9948;SDS011;5013;51.840;8.276;2023-02-28T04:27:16;7.73;;;6.30;;
9948;SDS011;5013;51.840;8.276;2023-02-28T04:29:41;6.93;;;6.23;;
9948;SDS011;5013;51.840;8.276;2023-02-28T04:32:09;7.83;;;6.27;;
9948;SDS011;5013;51.840;8.276;2023-02-28T04:34:35;7.77;;;6.10;;
9948;SDS011;5013;51.840;8.276;2023-02-28T04:37:01;6.70;;;5.23;;
9948;SDS011;5013;51.840;8.276;2023-02-28T04:39:28;6.27;;;5.07;;
9948;SDS011;5013;51.840;8.276;2023-02-28T04:41:54;7.00;;;4.87;;
9948;SDS011;5013;51.840;8.276;2023-02-28T04:44:20;12.67;;;6.33;;
9948;SDS011;5013;51.840;8.276;2023-02-28T04:46:47;11.20;;;6.63;;
9948;SDS011;5013;51.840;8.276;2023-02-28T04:49:13;6.93;;;5.27;;
9948;SDS011;5013;51.840;8.276;2023-02-28T04:51:40;11.23;;;6.60;;
9948;SDS011;5013;51.840;8.276;2023-02-28T04:54:06;7.47;;;6.27;;
9948;SDS011;5013;51.840;8.276;2023-02-28T04:56:31;6.90;;;5.20;;
9948;SDS011;5013;51.840;8.276;2023-02-28T04:58:57;10.23;;;5.63;;
9948;SDS011;5013;51.840;8.276;2023-02-28T05:01:24;6.67;;;5.80;;
9948;SDS011;5013;51.840;8.276;2023-02-28T05:03:50;7.70;;;5.43;;
9948;SDS011;5013;51.840;8.276;2023-02-28T05:06:17;10.23;;;5.23;;
9948;SDS011;5013;51.840;8.276;2023-02-28T05:08:43;6.00;;;5.10;;
9948;SDS011;5013;51.840;8.276;2023-02-28T05:11:13;8.00;;;5.47;;
9948;SDS011;5013;51.840;8.276;2023-02-28T05:13:41;7.10;;;5.00;;
9948;SDS011;5013;51.840;8.276;2023-02-28T05:16:06;5.30;;;4.33;;
9948;SDS011;5013;51.840;8.276;2023-02-28T05:18:32;4.83;;;4.37;;
9948;SDS011;5013;51.840;8.276;2023-02-28T05:20:57;7.60;;;4.80;;
9948;SDS011;5013;51.840;8.276;2023-02-28T05:23:26;8.67;;;4.97;;
9948;SDS011;5013;51.840;8.276;2023-02-28T05:25:52;5.97;;;4.57;;
9948;SDS011;5013;51.840;8.276;2023-02-28T05:28:19;10.13;;;5.13;;
9948;SDS011;5013;51.840;8.276;2023-02-28T05:30:44;6.00;;;4.70;;
9948;SDS011;5013;51.840;8.276;2023-02-28T05:33:10;5.07;;;4.57;;
9948;SDS011;5013;51.840;8.276;2023-02-28T05:35:37;8.07;;;5.20;;
9948;SDS011;5013;51.840;8.276;2023-02-28T05:38:07;7.63;;;5.63;;
9948;SDS011;5013;51.840;8.276;2023-02-28T05:40:33;9.13;;;5.17;;
9948;SDS011;5013;51.840;8.276;2023-02-28T05:42:59;9.20;;;5.73;;
9948;SDS011;5013;51.840;8.276;2023-02-28T05:45:25;5.67;;;5.17;;
9948;SDS011;5013;51.840;8.276;2023-02-28T05:47:54;8.67;;;5.40;;
9948;SDS011;5013;51.840;8.276;2023-02-28T05:50:20;9.63;;;5.13;;
9948;SDS011;5013;51.840;8.276;2023-02-28T05:52:52;9.33;;;5.80;;
9948;SDS011;5013;51.840;8.276;2023-02-28T05:55:18;9.30;;;5.83;;
9948;SDS011;5013;51.840;8.276;2023-02-28T05:57:43;12.70;;;7.23;;
9948;SDS011;5013;51.840;8.276;2023-02-28T06:00:09;10.77;;;6.47;;
9948;SDS011;5013;51.840;8.276;2023-02-28T06:02:36;8.33;;;6.80;;
9948;SDS011;5013;51.840;8.276;2023-02-28T06:05:03;16.53;;;14.40;;
9948;SDS011;5013;51.840;8.276;2023-02-28T06:07:29;14.20;;;11.57;;
9948;SDS011;5013;51.840;8.276;2023-02-28T06:09:54;11.23;;;9.43;;
9948;SDS011;5013;51.840;8.276;2023-02-28T06:12:20;11.77;;;7.53;;
9948;SDS011;5013;51.840;8.276;2023-02-28T06:14:45;10.23;;;6.37;;
9948;SDS011;5013;51.840;8.276;2023-02-28T06:17:11;13.80;;;7.87;;
9948;SDS011;5013;51.840;8.276;2023-02-28T06:19:37;10.13;;;7.80;;
9948;SDS011;5013;51.840;8.276;2023-02-28T06:22:03;9.27;;;8.33;;
9948;SDS011;5013;51.840;8.276;2023-02-28T06:24:29;12.53;;;7.07;;
9948;SDS011;5013;51.840;8.276;2023-02-28T06:26:56;10.17;;;7.53;;
9948;SDS011;5013;51.840;8.276;2023-02-28T06:29:23;11.07;;;7.10;;
9948;SDS011;5013;51.840;8.276;2023-02-28T06:31:49;7.60;;;6.80;;
9948;SDS011;5013;51.840;8.276;2023-02-28T06:34:15;7.87;;;6.93;;
9948;SDS011;5013;51.840;8.276;2023-02-28T06:36:41;10.10;;;7.57;;
9948;SDS011;5013;51.840;8.276;2023-02-28T06:39:07;11.90;;;8.07;;
9948;SDS011;5013;51.840;8.276;2023-02-28T06:41:34;12.83;;;8.60;;
9948;SDS011;5013;51.840;8.276;2023-02-28T06:44:03;18.33;;;10.20;;
9948;SDS011;5013;51.840;8.276;2023-02-28T06:46:30;30.43;;;13.93;;
9948;SDS011;5013;51.840;8.276;2023-02-28T06:48:56;19.80;;;12.23;;
9948;SDS011;5013;51.840;8.276;2023-02-28T06:51:22;24.97;;;13.47;;
9948;SDS011;5013;51.840;8.276;2023-02-28T06:53:49;17.77;;;11.13;;
9948;SDS011;5013;51.840;8.276;2023-02-28T06:56:16;13.57;;;9.93;;
9948;SDS011;5013;51.840;8.276;2023-02-28T06:58:45;11.63;;;8.30;;
9948;SDS011;5013;51.840;8.276;2023-02-28T07:01:14;11.40;;;8.27;;
9948;SDS011;5013;51.840;8.276;2023-02-28T07:03:40;18.63;;;8.40;;
9948;SDS011;5013;51.840;8.276;2023-02-28T07:06:06;11.57;;;8.80;;
9948;SDS011;5013;51.840;8.276;2023-02-28T07:08:32;14.87;;;9.33;;
9948;SDS011;5013;51.840;8.276;2023-02-28T07:10:58;12.13;;;7.87;;
9948;SDS011;5013;51.840;8.276;2023-02-28T07:13:24;10.87;;;7.87;;
9948;SDS011;5013;51.840;8.276;2023-02-28T07:15:57;11.03;;;7.23;;
9948;SDS011;5013;51.840;8.276;2023-02-28T07:18:23;9.73;;;7.17;;
9948;SDS011;5013;51.840;8.276;2023-02-28T07:20:48;14.23;;;7.50;;
9948;SDS011;5013;51.840;8.276;2023-02-28T07:23:14;10.60;;;7.53;;
9948;SDS011;5013;51.840;8.276;2023-02-28T07:25:40;10.10;;;7.90;;
9948;SDS011;5013;51.840;8.276;2023-02-28T07:28:06;10.40;;;6.97;;
9948;SDS011;5013;51.840;8.276;2023-02-28T07:30:31;7.87;;;7.07;;
9948;SDS011;5013;51.840;8.276;2023-02-28T07:32:57;9.67;;;7.83;;
9948;SDS011;5013;51.840;8.276;2023-02-28T07:35:23;10.00;;;7.33;;
9948;SDS011;5013;51.840;8.276;2023-02-28T07:37:48;12.40;;;7.53;;
9948;SDS011;5013;51.840;8.276;2023-02-28T07:40:14;13.53;;;9.33;;
9948;SDS011;5013;51.840;8.276;2023-02-28T07:42:40;12.07;;;9.00;;
9948;SDS011;5013;51.840;8.276;2023-02-28T07:45:07;19.10;;;10.33;;
9948;SDS011;5013;51.840;8.276;2023-02-28T07:47:36;14.47;;;9.33;;
9948;SDS011;5013;51.840;8.276;2023-02-28T07:50:02;10.93;;;8.53;;
9948;SDS011;5013;51.840;8.276;2023-02-28T07:52:28;9.60;;;8.13;;
9948;SDS011;5013;51.840;8.276;2023-02-28T07:54:53;14.83;;;8.03;;
9948;SDS011;5013;51.840;8.276;2023-02-28T07:57:19;8.37;;;6.33;;
9948;SDS011;5013;51.840;8.276;2023-02-28T07:59:44;9.00;;;6.40;;
9948;SDS011;5013;51.840;8.276;2023-02-28T08:02:13;8.60;;;7.10;;
9948;SDS011;5013;51.840;8.276;2023-02-28T08:04:40;12.37;;;10.13;;
9948;SDS011;5013;51.840;8.276;2023-02-28T08:07:05;37.63;;;23.43;;
9948;SDS011;5013;51.840;8.276;2023-02-28T08:09:31;21.70;;;13.60;;
9948;SDS011;5013;51.840;8.276;2023-02-28T08:11:57;16.43;;;9.93;;
9948;SDS011;5013;51.840;8.276;2023-02-28T08:14:22;16.20;;;9.17;;
9948;SDS011;5013;51.840;8.276;2023-02-28T08:16:48;20.73;;;12.43;;
9948;SDS011;5013;51.840;8.276;2023-02-28T08:19:14;19.90;;;13.17;;
9948;SDS011;5013;51.840;8.276;2023-02-28T08:21:39;18.80;;;9.73;;
9948;SDS011;5013;51.840;8.276;2023-02-28T08:24:05;26.00;;;12.50;;
9948;SDS011;5013;51.840;8.276;2023-02-28T08:26:31;28.70;;;14.37;;
9948;SDS011;5013;51.840;8.276;2023-02-28T08:28:56;23.97;;;11.63;;
9948;SDS011;5013;51.840;8.276;2023-02-28T08:31:22;8.30;;;4.97;;
9948;SDS011;5013;51.840;8.276;2023-02-28T08:33:48;12.30;;;6.30;;
9948;SDS011;5013;51.840;8.276;2023-02-28T08:36:16;10.37;;;6.50;;
9948;SDS011;5013;51.840;8.276;2023-02-28T08:38:42;4.80;;;3.90;;
9948;SDS011;5013;51.840;8.276;2023-02-28T08:41:09;3.90;;;3.50;;
9948;SDS011;5013;51.840;8.276;2023-02-28T08:43:36;3.90;;;3.50;;
9948;SDS011;5013;51.840;8.276;2023-02-28T08:46:02;2.73;;;2.53;;
9948;SDS011;5013;51.840;8.276;2023-02-28T08:48:28;5.83;;;3.20;;
9948;SDS011;5013;51.840;8.276;2023-02-28T08:51:05;2.43;;;2.23;;
9948;SDS011;5013;51.840;8.276;2023-02-28T08:53:34;8.37;;;2.90;;
9948;SDS011;5013;51.840;8.276;2023-02-28T08:56:02;3.33;;;3.03;;
9948;SDS011;5013;51.840;8.276;2023-02-28T08:58:32;5.87;;;2.70;;
9948;SDS011;5013;51.840;8.276;2023-02-28T09:00:59;6.00;;;2.50;;
9948;SDS011;5013;51.840;8.276;2023-02-28T09:03:25;2.73;;;2.53;;
9948;SDS011;5013;51.840;8.276;2023-02-28T09:05:56;2.63;;;2.43;;
9948;SDS011;5013;51.840;8.276;2023-02-28T09:08:24;1.97;;;1.80;;
9948;SDS011;5013;51.840;8.276;2023-02-28T09:10:51;2.30;;;2.10;;
9948;SDS011;5013;51.840;8.276;2023-02-28T09:13:17;2.30;;;2.20;;
9948;SDS011;5013;51.840;8.276;2023-02-28T09:15:43;3.07;;;2.87;;
9948;SDS011;5013;51.840;8.276;2023-02-28T09:18:09;2.63;;;2.47;;
9948;SDS011;5013;51.840;8.276;2023-02-28T09:20:37;3.43;;;2.50;;
9948;SDS011;5013;51.840;8.276;2023-02-28T09:23:04;4.90;;;2.23;;
9948;SDS011;5013;51.840;8.276;2023-02-28T09:25:31;3.53;;;2.70;;
9948;SDS011;5013;51.840;8.276;2023-02-28T09:27:56;2.60;;;2.30;;
9948;SDS011;5013;51.840;8.276;2023-02-28T09:30:22;3.97;;;2.10;;
9948;SDS011;5013;51.840;8.276;2023-02-28T09:32:47;2.33;;;2.23;;
9948;SDS011;5013;51.840;8.276;2023-02-28T09:35:23;4.07;;;2.30;;
9948;SDS011;5013;51.840;8.276;2023-02-28T09:37:50;2.80;;;2.37;;
9948;SDS011;5013;51.840;8.276;2023-02-28T09:40:17;2.40;;;2.20;;
9948;SDS011;5013;51.840;8.276;2023-02-28T09:42:49;6.47;;;2.43;;
9948;SDS011;5013;51.840;8.276;2023-02-28T09:45:24;2.80;;;2.00;;
9948;SDS011;5013;51.840;8.276;2023-02-28T09:47:56;3.77;;;1.90;;
9948;SDS011;5013;51.840;8.276;2023-02-28T09:53:02;2.90;;;1.90;;
9948;SDS011;5013;51.840;8.276;2023-02-28T09:55:52;4.83;;;1.70;;
9948;SDS011;5013;51.840;8.276;2023-02-28T09:58:23;5.67;;;2.20;;
9948;SDS011;5013;51.840;8.276;2023-02-28T10:00:58;4.23;;;2.00;;
9948;SDS011;5013;51.840;8.276;2023-02-28T10:06:45;2.13;;;1.97;;
9948;SDS011;5013;51.840;8.276;2023-02-28T10:09:18;1.83;;;1.80;;
9948;SDS011;5013;51.840;8.276;2023-02-28T10:11:50;2.97;;;1.70;;
9948;SDS011;5013;51.840;8.276;2023-02-28T10:14:19;1.70;;;1.60;;
9948;SDS011;5013;51.840;8.276;2023-02-28T10:16:49;2.57;;;2.30;;
9948;SDS011;5013;51.840;8.276;2023-02-28T10:19:35;3.47;;;2.00;;
9948;SDS011;5013;51.840;8.276;2023-02-28T10:24:58;2.43;;;1.93;;
9948;SDS011;5013;51.840;8.276;2023-02-28T10:27:29;2.83;;;2.10;;
9948;SDS011;5013;51.840;8.276;2023-02-28T10:29:57;3.33;;;2.20;;
9948;SDS011;5013;51.840;8.276;2023-02-28T10:35:16;2.97;;;2.63;;
9948;SDS011;5013;51.840;8.276;2023-02-28T10:37:43;2.00;;;1.90;;
9948;SDS011;5013;51.840;8.276;2023-02-28T10:43:04;3.77;;;2.27;;
9948;SDS011;5013;51.840;8.276;2023-02-28T10:45:58;5.60;;;2.50;;
9948;SDS011;5013;51.840;8.276;2023-02-28T10:48:30;2.30;;;2.10;;
9948;SDS011;5013;51.840;8.276;2023-02-28T10:50:59;2.67;;;2.40;;
9948;SDS011;5013;51.840;8.276;2023-02-28T10:53:36;3.60;;;2.37;;
9948;SDS011;5013;51.840;8.276;2023-02-28T11:03:49;2.50;;;2.30;;
9948;SDS011;5013;51.840;8.276;2023-02-28T11:06:21;3.37;;;2.47;;
9948;SDS011;5013;51.840;8.276;2023-02-28T11:11:18;3.90;;;2.27;;
9948;SDS011;5013;51.840;8.276;2023-02-28T11:13:46;3.13;;;2.50;;
9948;SDS011;5013;51.840;8.276;2023-02-28T11:16:13;4.00;;;2.50;;
9948;SDS011;5013;51.840;8.276;2023-02-28T11:18:41;3.87;;;2.67;;
9948;SDS011;5013;51.840;8.276;2023-02-28T11:21:07;2.37;;;2.27;;
9948;SDS011;5013;51.840;8.276;2023-02-28T11:23:35;4.83;;;2.60;;
9948;SDS011;5013;51.840;8.276;2023-02-28T11:26:05;2.70;;;2.57;;
9948;SDS011;5013;51.840;8.276;2023-02-28T11:28:41;2.93;;;2.27;;
9948;SDS011;5013;51.840;8.276;2023-02-28T11:36:14;2.87;;;2.67;;
9948;SDS011;5013;51.840;8.276;2023-02-28T11:38:58;2.77;;;2.57;;
9948;SDS011;5013;51.840;8.276;2023-02-28T11:41:35;2.90;;;2.20;;
9948;SDS011;5013;51.840;8.276;2023-02-28T11:44:23;3.47;;;2.30;;
9948;SDS011;5013;51.840;8.276;2023-02-28T11:46:58;3.20;;;2.63;;
9948;SDS011;5013;51.840;8.276;2023-02-28T11:49:38;3.33;;;3.03;;
9948;SDS011;5013;51.840;8.276;2023-02-28T12:09:11;3.33;;;2.83;;
9948;SDS011;5013;51.840;8.276;2023-02-28T12:11:58;5.73;;;2.90;;
9948;SDS011;5013;51.840;8.276;2023-02-28T12:25:59;2.97;;;2.63;;
9948;SDS011;5013;51.840;8.276;2023-02-28T12:28:35;3.20;;;2.80;;
9948;SDS011;5013;51.840;8.276;2023-02-28T12:31:11;4.10;;;2.87;;
9948;SDS011;5013;51.840;8.276;2023-02-28T12:33:40;2.80;;;2.60;;
9948;SDS011;5013;51.840;8.276;2023-02-28T12:36:14;2.77;;;2.37;;
9948;SDS011;5013;51.840;8.276;2023-02-28T12:38:45;3.00;;;2.80;;
9948;SDS011;5013;51.840;8.276;2023-02-28T12:41:17;2.83;;;2.63;;
9948;SDS011;5013;51.840;8.276;2023-02-28T12:44:21;2.77;;;2.47;;
9948;SDS011;5013;51.840;8.276;2023-02-28T12:46:44;2.67;;;2.57;;
9948;SDS011;5013;51.840;8.276;2023-02-28T12:49:16;2.73;;;2.53;;
9948;SDS011;5013;51.840;8.276;2023-02-28T12:52:03;3.37;;;2.77;;
9948;SDS011;5013;51.840;8.276;2023-02-28T12:54:38;3.60;;;2.90;;
9948;SDS011;5013;51.840;8.276;2023-02-28T12:57:42;2.87;;;2.67;;
9948;SDS011;5013;51.840;8.276;2023-02-28T13:00:15;2.97;;;2.67;;
9948;SDS011;5013;51.840;8.276;2023-02-28T13:11:01;3.67;;;2.70;;
9948;SDS011;5013;51.840;8.276;2023-02-28T13:13:28;2.87;;;2.60;;
9948;SDS011;5013;51.840;8.276;2023-02-28T13:16:06;5.03;;;2.50;;
9948;SDS011;5013;51.840;8.276;2023-02-28T13:21:01;8.53;;;5.70;;
9948;SDS011;5013;51.840;8.276;2023-02-28T13:26:20;11.77;;;7.53;;
9948;SDS011;5013;51.840;8.276;2023-02-28T13:28:57;3.00;;;2.77;;
9948;SDS011;5013;51.840;8.276;2023-02-28T13:31:25;5.70;;;2.90;;
9948;SDS011;5013;51.840;8.276;2023-02-28T13:46:34;3.37;;;2.80;;
9948;SDS011;5013;51.840;8.276;2023-02-28T13:52:00;4.07;;;2.60;;
9948;SDS011;5013;51.840;8.276;2023-02-28T14:05:42;2.30;;;2.10;;
9948;SDS011;5013;51.840;8.276;2023-02-28T14:08:13;5.30;;;2.80;;
9948;SDS011;5013;51.840;8.276;2023-02-28T14:10:50;2.40;;;2.30;;
9948;SDS011;5013;51.840;8.276;2023-02-28T14:13:38;4.20;;;2.70;;
9948;SDS011;5013;51.840;8.276;2023-02-28T14:16:13;2.60;;;2.40;;
9948;SDS011;5013;51.840;8.276;2023-02-28T14:18:51;2.83;;;2.60;;
9948;SDS011;5013;51.840;8.276;2023-02-28T14:27:21;3.03;;;2.83;;
9948;SDS011;5013;51.840;8.276;2023-02-28T14:32:54;2.80;;;2.60;;
9948;SDS011;5013;51.840;8.276;2023-02-28T14:38:05;3.00;;;2.80;;
9948;SDS011;5013;51.840;8.276;2023-02-28T14:40:38;2.70;;;2.50;;
9948;SDS011;5013;51.840;8.276;2023-02-28T14:43:05;5.13;;;3.03;;
9948;SDS011;5013;51.840;8.276;2023-02-28T14:45:48;3.33;;;3.03;;
9948;SDS011;5013;51.840;8.276;2023-02-28T14:48:21;3.87;;;2.77;;
9948;SDS011;5013;51.840;8.276;2023-02-28T14:50:49;3.47;;;3.17;;
9948;SDS011;5013;51.840;8.276;2023-02-28T14:53:18;4.27;;;3.20;;
9948;SDS011;5013;51.840;8.276;2023-02-28T14:55:46;3.50;;;3.20;;
9948;SDS011;5013;51.840;8.276;2023-02-28T14:58:50;2.87;;;2.67;;
9948;SDS011;5013;51.840;8.276;2023-02-28T15:01:05;3.07;;;2.73;;
9948;SDS011;5013;51.840;8.276;2023-02-28T15:03:36;3.50;;;3.07;;
9948;SDS011;5013;51.840;8.276;2023-02-28T15:06:04;3.27;;;2.97;;
9948;SDS011;5013;51.840;8.276;2023-02-28T15:08:37;3.87;;;2.90;;
9948;SDS011;5013;51.840;8.276;2023-02-28T15:11:04;4.63;;;3.27;;
9948;SDS011;5013;51.840;8.276;2023-02-28T15:16:04;3.13;;;2.87;;
9948;SDS011;5013;51.840;8.276;2023-02-28T15:21:12;2.57;;;2.37;;
9948;SDS011;5013;51.840;8.276;2023-02-28T15:23:42;3.17;;;2.97;;
9948;SDS011;5013;51.840;8.276;2023-02-28T15:26:13;4.97;;;3.37;;
9948;SDS011;5013;51.840;8.276;2023-02-28T15:28:44;3.13;;;2.90;;
9948;SDS011;5013;51.840;8.276;2023-02-28T15:31:18;7.37;;;3.93;;
9948;SDS011;5013;51.840;8.276;2023-02-28T15:34:02;4.33;;;3.83;;
9948;SDS011;5013;51.840;8.276;2023-02-28T15:36:30;5.50;;;3.40;;
9948;SDS011;5013;51.840;8.276;2023-02-28T15:38:58;9.63;;;3.50;;
9948;SDS011;5013;51.840;8.276;2023-02-28T15:41:26;3.70;;;3.10;;
9948;SDS011;5013;51.840;8.276;2023-02-28T15:47:01;5.87;;;3.43;;
9948;SDS011;5013;51.840;8.276;2023-02-28T15:49:32;4.13;;;3.80;;
9948;SDS011;5013;51.840;8.276;2023-02-28T15:52:12;6.83;;;3.93;;
9948;SDS011;5013;51.840;8.276;2023-02-28T15:54:41;4.20;;;3.80;;
9948;SDS011;5013;51.840;8.276;2023-02-28T15:57:17;6.27;;;3.80;;
9948;SDS011;5013;51.840;8.276;2023-02-28T15:59:56;4.30;;;3.87;;
9948;SDS011;5013;51.840;8.276;2023-02-28T16:02:38;6.03;;;3.67;;
9948;SDS011;5013;51.840;8.276;2023-02-28T16:07:32;3.60;;;3.30;;
9948;SDS011;5013;51.840;8.276;2023-02-28T16:09:59;3.60;;;3.30;;
9948;SDS011;5013;51.840;8.276;2023-02-28T16:12:26;4.20;;;3.60;;
9948;SDS011;5013;51.840;8.276;2023-02-28T16:14:54;5.63;;;3.47;;
9948;SDS011;5013;51.840;8.276;2023-02-28T16:17:23;3.73;;;3.43;;
9948;SDS011;5013;51.840;8.276;2023-02-28T16:19:51;3.70;;;3.40;;
9948;SDS011;5013;51.840;8.276;2023-02-28T16:22:17;4.17;;;3.50;;
9948;SDS011;5013;51.840;8.276;2023-02-28T16:24:43;3.77;;;3.47;;
9948;SDS011;5013;51.840;8.276;2023-02-28T16:27:21;3.33;;;3.03;;
9948;SDS011;5013;51.840;8.276;2023-02-28T16:29:57;3.63;;;3.00;;
9948;SDS011;5013;51.840;8.276;2023-02-28T16:32:23;3.60;;;3.30;;
9948;SDS011;5013;51.840;8.276;2023-02-28T16:34:48;4.30;;;3.80;;
9948;SDS011;5013;51.840;8.276;2023-02-28T16:37:15;4.27;;;3.73;;
9948;SDS011;5013;51.840;8.276;2023-02-28T16:39:42;4.50;;;4.10;;
9948;SDS011;5013;51.840;8.276;2023-02-28T16:42:15;4.30;;;3.90;;
9948;SDS011;5013;51.840;8.276;2023-02-28T16:44:47;7.03;;;4.27;;
9948;SDS011;5013;51.840;8.276;2023-02-28T16:47:13;6.70;;;4.80;;
9948;SDS011;5013;51.840;8.276;2023-02-28T16:49:38;6.17;;;4.90;;
9948;SDS011;5013;51.840;8.276;2023-02-28T16:52:06;4.87;;;3.70;;
9948;SDS011;5013;51.840;8.276;2023-02-28T16:54:32;4.23;;;3.83;;
9948;SDS011;5013;51.840;8.276;2023-02-28T16:56:58;20.73;;;13.63;;
9948;SDS011;5013;51.840;8.276;2023-02-28T16:59:24;13.87;;;12.30;;
9948;SDS011;5013;51.840;8.276;2023-02-28T17:01:51;10.33;;;7.67;;
9948;SDS011;5013;51.840;8.276;2023-02-28T17:04:17;13.90;;;9.57;;
9948;SDS011;5013;51.840;8.276;2023-02-28T17:06:43;10.23;;;7.90;;
9948;SDS011;5013;51.840;8.276;2023-02-28T17:09:16;18.53;;;11.20;;
9948;SDS011;5013;51.840;8.276;2023-02-28T17:11:44;7.00;;;6.00;;
9948;SDS011;5013;51.840;8.276;2023-02-28T17:14:10;69.47;;;38.07;;
9948;SDS011;5013;51.840;8.276;2023-02-28T17:16:36;16.77;;;11.70;;
9948;SDS011;5013;51.840;8.276;2023-02-28T17:19:06;12.70;;;11.40;;
9948;SDS011;5013;51.840;8.276;2023-02-28T17:21:36;9.47;;;7.20;;
9948;SDS011;5013;51.840;8.276;2023-02-28T17:24:02;9.07;;;7.70;;
9948;SDS011;5013;51.840;8.276;2023-02-28T17:26:28;19.10;;;11.80;;
9948;SDS011;5013;51.840;8.276;2023-02-28T17:28:55;10.30;;;9.20;;
9948;SDS011;5013;51.840;8.276;2023-02-28T17:31:22;10.97;;;8.97;;
9948;SDS011;5013;51.840;8.276;2023-02-28T17:33:48;15.87;;;9.77;;
9948;SDS011;5013;51.840;8.276;2023-02-28T17:36:15;12.13;;;8.47;;
9948;SDS011;5013;51.840;8.276;2023-02-28T17:38:42;8.97;;;7.83;;
9948;SDS011;5013;51.840;8.276;2023-02-28T17:41:11;6.63;;;5.90;;
9948;SDS011;5013;51.840;8.276;2023-02-28T17:43:37;7.83;;;7.03;;
9948;SDS011;5013;51.840;8.276;2023-02-28T17:46:03;8.90;;;7.87;;
9948;SDS011;5013;51.840;8.276;2023-02-28T17:48:30;10.80;;;8.90;;
9948;SDS011;5013;51.840;8.276;2023-02-28T17:50:56;17.53;;;11.20;;
9948;SDS011;5013;51.840;8.276;2023-02-28T17:53:22;35.30;;;20.10;;
9948;SDS011;5013;51.840;8.276;2023-02-28T17:55:48;44.77;;;24.10;;
9948;SDS011;5013;51.840;8.276;2023-02-28T17:58:16;38.43;;;20.77;;
9948;SDS011;5013;51.840;8.276;2023-02-28T18:00:43;22.37;;;14.97;;
9948;SDS011;5013;51.840;8.276;2023-02-28T18:03:09;17.70;;;12.57;;
9948;SDS011;5013;51.840;8.276;2023-02-28T18:05:35;15.23;;;11.93;;